sensor_id;sensor_type;location;lat;lon;timestamp;P1;durP1;ratioP1;P2;durP2;ratioP2
64291;SDS011;50628;51.008;13.658;2024-02-26T00:02:28;15.80;;;12.73;;
64291;SDS011;50628;51.008;13.658;2024-02-26T00:07:31;18.63;;;11.83;;
64291;SDS011;50628;51.008;13.658;2024-02-26T00:12:33;20.30;;;12.57;;
64291;SDS011;50628;51.008;13.658;2024-02-26T00:17:35;21.47;;;13.00;;
64291;SDS011;50628;51.008;13.658;2024-02-26T00:22:38;16.10;;;12.37;;
64291;SDS011;50628;51.008;13.658;2024-02-26T00:27:40;16.73;;;12.30;;
64291;SDS011;50628;51.008;13.658;2024-02-26T00:32:44;17.73;;;13.30;;
64291;SDS011;50628;51.008;13.658;2024-02-26T00:37:47;18.97;;;13.53;;
64291;SDS011;50628;51.008;13.658;2024-02-26T00:42:49;17.70;;;13.23;;
64291;SDS011;50628;51.008;13.658;2024-02-26T00:47:50;17.23;;;12.20;;
64291;SDS011;50628;51.008;13.658;2024-02-26T00:52:54;16.90;;;13.07;;
64291;SDS011;50628;51.008;13.658;2024-02-26T00:57:56;16.77;;;11.70;;
64291;SDS011;50628;51.008;13.658;2024-02-26T01:02:57;17.00;;;12.63;;
64291;SDS011;50628;51.008;13.658;2024-02-26T01:08:01;16.33;;;12.60;;
64291;SDS011;50628;51.008;13.658;2024-02-26T01:13:03;18.70;;;12.93;;
64291;SDS011;50628;51.008;13.658;2024-02-26T01:18:05;16.93;;;12.83;;
64291;SDS011;50628;51.008;13.658;2024-02-26T01:23:09;17.47;;;12.67;;
64291;SDS011;50628;51.008;13.658;2024-02-26T01:28:11;17.27;;;13.27;;
64291;SDS011;50628;51.008;13.658;2024-02-26T01:33:12;17.40;;;12.40;;
64291;SDS011;50628;51.008;13.658;2024-02-26T01:38:16;17.60;;;13.93;;
64291;SDS011;50628;51.008;13.658;2024-02-26T01:43:17;21.03;;;14.17;;
64291;SDS011;50628;51.008;13.658;2024-02-26T01:48:19;18.57;;;12.20;;
64291;SDS011;50628;51.008;13.658;2024-02-26T01:53:23;19.43;;;12.53;;
64291;SDS011;50628;51.008;13.658;2024-02-26T01:58:25;17.30;;;12.53;;
64291;SDS011;50628;51.008;13.658;2024-02-26T02:03:27;18.20;;;13.43;;
64291;SDS011;50628;51.008;13.658;2024-02-26T02:08:31;17.83;;;13.80;;
64291;SDS011;50628;51.008;13.658;2024-02-26T02:13:35;18.93;;;14.00;;
64291;SDS011;50628;51.008;13.658;2024-02-26T02:18:37;20.67;;;14.27;;
64291;SDS011;50628;51.008;13.658;2024-02-26T02:23:40;18.13;;;13.83;;
64291;SDS011;50628;51.008;13.658;2024-02-26T02:28:46;16.67;;;12.40;;
64291;SDS011;50628;51.008;13.658;2024-02-26T02:33:49;16.77;;;12.40;;
64291;SDS011;50628;51.008;13.658;2024-02-26T02:38:53;21.70;;;13.37;;
64291;SDS011;50628;51.008;13.658;2024-02-26T02:43:55;17.57;;;12.87;;
64291;SDS011;50628;51.008;13.658;2024-02-26T02:48:56;17.03;;;12.00;;
64291;SDS011;50628;51.008;13.658;2024-02-26T02:54:00;20.07;;;14.17;;
64291;SDS011;50628;51.008;13.658;2024-02-26T02:59:02;18.23;;;12.83;;
64291;SDS011;50628;51.008;13.658;2024-02-26T03:04:04;20.67;;;13.13;;
64291;SDS011;50628;51.008;13.658;2024-02-26T03:09:07;20.00;;;13.93;;
64291;SDS011;50628;51.008;13.658;2024-02-26T03:14:09;19.30;;;13.37;;
64291;SDS011;50628;51.008;13.658;2024-02-26T03:19:14;15.47;;;11.77;;
64291;SDS011;50628;51.008;13.658;2024-02-26T03:24:17;18.37;;;12.23;;
64291;SDS011;50628;51.008;13.658;2024-02-26T03:29:19;20.37;;;12.67;;
64291;SDS011;50628;51.008;13.658;2024-02-26T03:34:21;19.77;;;13.83;;
64291;SDS011;50628;51.008;13.658;2024-02-26T03:39:24;21.93;;;12.23;;
64291;SDS011;50628;51.008;13.658;2024-02-26T03:44:26;18.53;;;12.90;;
64291;SDS011;50628;51.008;13.658;2024-02-26T03:49:27;17.73;;;13.03;;
64291;SDS011;50628;51.008;13.658;2024-02-26T03:54:31;23.10;;;12.93;;
64291;SDS011;50628;51.008;13.658;2024-02-26T03:59:33;21.30;;;12.87;;
64291;SDS011;50628;51.008;13.658;2024-02-26T04:04:35;18.73;;;13.53;;
64291;SDS011;50628;51.008;13.658;2024-02-26T04:09:38;19.47;;;13.53;;
64291;SDS011;50628;51.008;13.658;2024-02-26T04:14:40;19.30;;;13.00;;
64291;SDS011;50628;51.008;13.658;2024-02-26T04:19:41;20.83;;;13.77;;
64291;SDS011;50628;51.008;13.658;2024-02-26T04:24:45;22.23;;;12.80;;
64291;SDS011;50628;51.008;13.658;2024-02-26T04:29:47;18.93;;;13.10;;
64291;SDS011;50628;51.008;13.658;2024-02-26T04:34:48;25.57;;;14.47;;
64291;SDS011;50628;51.008;13.658;2024-02-26T04:39:52;20.80;;;14.13;;
64291;SDS011;50628;51.008;13.658;2024-02-26T04:44:54;23.20;;;13.97;;
64291;SDS011;50628;51.008;13.658;2024-02-26T04:49:56;24.67;;;14.33;;
64291;SDS011;50628;51.008;13.658;2024-02-26T04:54:59;24.20;;;14.17;;
64291;SDS011;50628;51.008;13.658;2024-02-26T05:00:01;21.63;;;13.57;;
64291;SDS011;50628;51.008;13.658;2024-02-26T05:05:05;20.30;;;13.87;;
64291;SDS011;50628;51.008;13.658;2024-02-26T05:10:10;22.40;;;14.20;;
64291;SDS011;50628;51.008;13.658;2024-02-26T05:15:12;21.17;;;12.20;;
64291;SDS011;50628;51.008;13.658;2024-02-26T05:20:18;21.50;;;13.37;;
64291;SDS011;50628;51.008;13.658;2024-02-26T05:25:22;29.40;;;18.73;;
64291;SDS011;50628;51.008;13.658;2024-02-26T05:30:24;23.20;;;14.30;;
64291;SDS011;50628;51.008;13.658;2024-02-26T05:35:27;25.07;;;14.20;;
64291;SDS011;50628;51.008;13.658;2024-02-26T05:40:30;25.03;;;15.63;;
64291;SDS011;50628;51.008;13.658;2024-02-26T05:45:32;26.23;;;15.03;;
64291;SDS011;50628;51.008;13.658;2024-02-26T05:50:34;25.37;;;14.73;;
64291;SDS011;50628;51.008;13.658;2024-02-26T05:55:37;21.60;;;13.70;;
64291;SDS011;50628;51.008;13.658;2024-02-26T06:00:39;28.87;;;14.23;;
64291;SDS011;50628;51.008;13.658;2024-02-26T06:05:41;21.93;;;13.87;;
64291;SDS011;50628;51.008;13.658;2024-02-26T06:10:45;24.87;;;15.07;;
64291;SDS011;50628;51.008;13.658;2024-02-26T06:15:47;25.53;;;16.27;;
64291;SDS011;50628;51.008;13.658;2024-02-26T06:20:49;29.37;;;16.60;;
64291;SDS011;50628;51.008;13.658;2024-02-26T06:25:52;26.27;;;14.97;;
64291;SDS011;50628;51.008;13.658;2024-02-26T06:30:54;26.80;;;16.10;;
64291;SDS011;50628;51.008;13.658;2024-02-26T06:35:56;26.97;;;16.07;;
64291;SDS011;50628;51.008;13.658;2024-02-26T06:40:59;28.00;;;16.77;;
64291;SDS011;50628;51.008;13.658;2024-02-26T06:46:03;30.33;;;16.20;;
64291;SDS011;50628;51.008;13.658;2024-02-26T06:51:05;32.93;;;18.17;;
64291;SDS011;50628;51.008;13.658;2024-02-26T06:56:08;32.63;;;20.50;;
64291;SDS011;50628;51.008;13.658;2024-02-26T07:01:11;25.97;;;16.93;;
64291;SDS011;50628;51.008;13.658;2024-02-26T07:06:13;26.07;;;16.07;;
64291;SDS011;50628;51.008;13.658;2024-02-26T07:11:16;29.50;;;16.47;;
64291;SDS011;50628;51.008;13.658;2024-02-26T07:16:20;29.27;;;16.80;;
64291;SDS011;50628;51.008;13.658;2024-02-26T07:21:21;28.97;;;16.37;;
64291;SDS011;50628;51.008;13.658;2024-02-26T07:26:25;28.07;;;15.93;;
64291;SDS011;50628;51.008;13.658;2024-02-26T07:31:30;29.57;;;16.87;;
64291;SDS011;50628;51.008;13.658;2024-02-26T07:36:31;34.63;;;17.07;;
64291;SDS011;50628;51.008;13.658;2024-02-26T07:41:35;31.20;;;16.27;;
64291;SDS011;50628;51.008;13.658;2024-02-26T07:46:39;28.17;;;15.07;;
64291;SDS011;50628;51.008;13.658;2024-02-26T07:51:41;28.23;;;14.83;;
64291;SDS011;50628;51.008;13.658;2024-02-26T07:56:44;27.70;;;15.63;;
64291;SDS011;50628;51.008;13.658;2024-02-26T08:01:49;25.60;;;15.43;;
64291;SDS011;50628;51.008;13.658;2024-02-26T08:06:51;29.83;;;17.40;;
64291;SDS011;50628;51.008;13.658;2024-02-26T08:11:54;24.67;;;16.10;;
64291;SDS011;50628;51.008;13.658;2024-02-26T08:16:56;31.50;;;15.10;;
64291;SDS011;50628;51.008;13.658;2024-02-26T08:21:58;25.33;;;15.00;;
64291;SDS011;50628;51.008;13.658;2024-02-26T08:27:01;21.30;;;14.57;;
64291;SDS011;50628;51.008;13.658;2024-02-26T08:32:03;21.60;;;13.40;;
64291;SDS011;50628;51.008;13.658;2024-02-26T08:37:06;19.13;;;13.03;;
64291;SDS011;50628;51.008;13.658;2024-02-26T08:42:09;18.17;;;10.03;;
64291;SDS011;50628;51.008;13.658;2024-02-26T08:47:11;20.37;;;9.33;;
64291;SDS011;50628;51.008;13.658;2024-02-26T08:52:13;18.03;;;9.50;;
64291;SDS011;50628;51.008;13.658;2024-02-26T08:57:17;20.70;;;10.83;;
64291;SDS011;50628;51.008;13.658;2024-02-26T09:02:19;18.07;;;8.20;;
64291;SDS011;50628;51.008;13.658;2024-02-26T09:07:21;14.83;;;8.50;;
64291;SDS011;50628;51.008;13.658;2024-02-26T09:12:24;12.93;;;7.33;;
64291;SDS011;50628;51.008;13.658;2024-02-26T09:17:26;11.67;;;7.20;;
64291;SDS011;50628;51.008;13.658;2024-02-26T09:22:28;10.70;;;7.03;;
64291;SDS011;50628;51.008;13.658;2024-02-26T09:27:31;14.33;;;8.87;;
64291;SDS011;50628;51.008;13.658;2024-02-26T09:32:33;10.93;;;7.47;;
64291;SDS011;50628;51.008;13.658;2024-02-26T09:37:35;10.77;;;8.13;;
64291;SDS011;50628;51.008;13.658;2024-02-26T09:42:38;11.77;;;8.07;;
64291;SDS011;50628;51.008;13.658;2024-02-26T09:47:45;16.63;;;9.53;;
64291;SDS011;50628;51.008;13.658;2024-02-26T09:52:49;12.10;;;8.47;;
64291;SDS011;50628;51.008;13.658;2024-02-26T09:57:54;13.80;;;8.70;;
64291;SDS011;50628;51.008;13.658;2024-02-26T10:02:59;14.73;;;8.50;;
64291;SDS011;50628;51.008;13.658;2024-02-26T10:08:05;13.87;;;8.77;;
64291;SDS011;50628;51.008;13.658;2024-02-26T10:13:11;12.77;;;8.07;;
64291;SDS011;50628;51.008;13.658;2024-02-26T10:18:12;20.47;;;11.80;;
64291;SDS011;50628;51.008;13.658;2024-02-26T10:23:14;10.57;;;7.60;;
64291;SDS011;50628;51.008;13.658;2024-02-26T10:28:17;13.00;;;8.07;;
64291;SDS011;50628;51.008;13.658;2024-02-26T10:33:19;14.93;;;8.50;;
64291;SDS011;50628;51.008;13.658;2024-02-26T10:38:23;13.93;;;8.03;;
64291;SDS011;50628;51.008;13.658;2024-02-26T10:43:26;11.80;;;8.27;;
64291;SDS011;50628;51.008;13.658;2024-02-26T10:48:28;12.23;;;8.67;;
64291;SDS011;50628;51.008;13.658;2024-02-26T10:53:31;15.53;;;9.03;;
64291;SDS011;50628;51.008;13.658;2024-02-26T10:58:37;11.67;;;8.53;;
64291;SDS011;50628;51.008;13.658;2024-02-26T11:03:39;15.23;;;9.27;;
64291;SDS011;50628;51.008;13.658;2024-02-26T11:08:42;11.40;;;8.37;;
64291;SDS011;50628;51.008;13.658;2024-02-26T11:13:47;12.33;;;9.23;;
64291;SDS011;50628;51.008;13.658;2024-02-26T11:18:51;15.53;;;10.03;;
64291;SDS011;50628;51.008;13.658;2024-02-26T11:23:56;17.07;;;9.13;;
64291;SDS011;50628;51.008;13.658;2024-02-26T11:28:59;14.97;;;8.83;;
64291;SDS011;50628;51.008;13.658;2024-02-26T11:34:02;10.83;;;8.80;;
64291;SDS011;50628;51.008;13.658;2024-02-26T11:39:05;13.57;;;8.57;;
64291;SDS011;50628;51.008;13.658;2024-02-26T11:44:09;10.70;;;7.57;;
64291;SDS011;50628;51.008;13.658;2024-02-26T11:49:30;18.47;;;9.43;;
64291;SDS011;50628;51.008;13.658;2024-02-26T11:54:39;10.83;;;7.73;;
64291;SDS011;50628;51.008;13.658;2024-02-26T11:59:49;10.30;;;7.80;;
64291;SDS011;50628;51.008;13.658;2024-02-26T12:04:51;9.40;;;7.60;;
64291;SDS011;50628;51.008;13.658;2024-02-26T12:15:37;13.53;;;8.10;;
64291;SDS011;50628;51.008;13.658;2024-02-26T12:20:40;10.03;;;7.57;;
64291;SDS011;50628;51.008;13.658;2024-02-26T12:25:42;12.70;;;8.27;;
64291;SDS011;50628;51.008;13.658;2024-02-26T12:30:46;9.83;;;7.30;;
64291;SDS011;50628;51.008;13.658;2024-02-26T12:35:48;13.10;;;8.40;;
64291;SDS011;50628;51.008;13.658;2024-02-26T12:40:51;16.73;;;7.67;;
64291;SDS011;50628;51.008;13.658;2024-02-26T12:45:54;9.73;;;7.90;;
64291;SDS011;50628;51.008;13.658;2024-02-26T12:50:56;9.37;;;7.80;;
64291;SDS011;50628;51.008;13.658;2024-02-26T12:55:59;14.40;;;8.20;;
64291;SDS011;50628;51.008;13.658;2024-02-26T13:01:03;12.87;;;8.97;;
64291;SDS011;50628;51.008;13.658;2024-02-26T13:06:06;15.97;;;8.53;;
64291;SDS011;50628;51.008;13.658;2024-02-26T13:11:08;15.40;;;9.80;;
64291;SDS011;50628;51.008;13.658;2024-02-26T13:16:13;9.87;;;7.50;;
64291;SDS011;50628;51.008;13.658;2024-02-26T13:21:17;9.90;;;7.87;;
64291;SDS011;50628;51.008;13.658;2024-02-26T13:26:22;11.10;;;7.70;;
64291;SDS011;50628;51.008;13.658;2024-02-26T13:31:26;12.47;;;7.63;;
64291;SDS011;50628;51.008;13.658;2024-02-26T13:36:28;14.77;;;7.93;;
64291;SDS011;50628;51.008;13.658;2024-02-26T13:41:30;12.93;;;7.90;;
64291;SDS011;50628;51.008;13.658;2024-02-26T13:46:34;13.90;;;7.57;;
64291;SDS011;50628;51.008;13.658;2024-02-26T13:51:35;14.13;;;7.17;;
64291;SDS011;50628;51.008;13.658;2024-02-26T13:56:37;11.50;;;7.70;;
64291;SDS011;50628;51.008;13.658;2024-02-26T14:01:41;11.47;;;8.63;;
64291;SDS011;50628;51.008;13.658;2024-02-26T14:06:43;14.20;;;7.43;;
64291;SDS011;50628;51.008;13.658;2024-02-26T14:11:44;13.37;;;7.43;;
64291;SDS011;50628;51.008;13.658;2024-02-26T14:16:48;14.27;;;8.10;;
64291;SDS011;50628;51.008;13.658;2024-02-26T14:21:50;13.47;;;7.53;;
64291;SDS011;50628;51.008;13.658;2024-02-26T14:26:52;9.67;;;7.07;;
64291;SDS011;50628;51.008;13.658;2024-02-26T14:31:55;11.73;;;7.27;;
64291;SDS011;50628;51.008;13.658;2024-02-26T14:36:57;11.67;;;7.47;;
64291;SDS011;50628;51.008;13.658;2024-02-26T14:41:58;16.37;;;7.83;;
64291;SDS011;50628;51.008;13.658;2024-02-26T14:47:02;11.47;;;6.53;;
64291;SDS011;50628;51.008;13.658;2024-02-26T14:52:08;24.90;;;7.60;;
64291;SDS011;50628;51.008;13.658;2024-02-26T15:03:06;13.30;;;7.10;;
64291;SDS011;50628;51.008;13.658;2024-02-26T15:08:08;11.40;;;7.43;;
64291;SDS011;50628;51.008;13.658;2024-02-26T15:13:15;9.63;;;6.97;;
64291;SDS011;50628;51.008;13.658;2024-02-26T15:18:19;12.27;;;6.70;;
64291;SDS011;50628;51.008;13.658;2024-02-26T15:23:22;12.70;;;7.47;;
64291;SDS011;50628;51.008;13.658;2024-02-26T15:28:24;12.17;;;7.67;;
64291;SDS011;50628;51.008;13.658;2024-02-26T15:33:29;14.20;;;8.57;;
64291;SDS011;50628;51.008;13.658;2024-02-26T15:38:30;12.83;;;7.77;;
64291;SDS011;50628;51.008;13.658;2024-02-26T15:43:32;8.77;;;6.70;;
64291;SDS011;50628;51.008;13.658;2024-02-26T15:48:37;8.87;;;7.10;;
64291;SDS011;50628;51.008;13.658;2024-02-26T15:53:39;10.70;;;7.13;;
64291;SDS011;50628;51.008;13.658;2024-02-26T15:58:41;9.70;;;6.93;;
64291;SDS011;50628;51.008;13.658;2024-02-26T16:03:44;11.50;;;7.47;;
64291;SDS011;50628;51.008;13.658;2024-02-26T16:08:46;11.50;;;7.00;;
64291;SDS011;50628;51.008;13.658;2024-02-26T16:13:48;11.03;;;8.17;;
64291;SDS011;50628;51.008;13.658;2024-02-26T16:19:02;7.90;;;6.40;;
64291;SDS011;50628;51.008;13.658;2024-02-26T16:24:07;13.00;;;8.77;;
64291;SDS011;50628;51.008;13.658;2024-02-26T16:29:09;11.40;;;7.80;;
64291;SDS011;50628;51.008;13.658;2024-02-26T16:34:12;11.27;;;7.90;;
64291;SDS011;50628;51.008;13.658;2024-02-26T16:39:14;16.90;;;8.10;;
64291;SDS011;50628;51.008;13.658;2024-02-26T16:44:17;12.27;;;7.30;;
64291;SDS011;50628;51.008;13.658;2024-02-26T16:49:20;17.20;;;9.73;;
64291;SDS011;50628;51.008;13.658;2024-02-26T16:54:22;11.67;;;7.70;;
64291;SDS011;50628;51.008;13.658;2024-02-26T16:59:24;11.97;;;7.67;;
64291;SDS011;50628;51.008;13.658;2024-02-26T17:04:29;11.83;;;8.43;;
64291;SDS011;50628;51.008;13.658;2024-02-26T17:09:31;16.23;;;8.00;;
64291;SDS011;50628;51.008;13.658;2024-02-26T17:14:33;11.73;;;8.20;;
64291;SDS011;50628;51.008;13.658;2024-02-26T17:19:36;15.53;;;8.13;;
64291;SDS011;50628;51.008;13.658;2024-02-26T17:24:38;14.87;;;9.10;;
64291;SDS011;50628;51.008;13.658;2024-02-26T17:29:41;16.70;;;10.40;;
64291;SDS011;50628;51.008;13.658;2024-02-26T17:34:44;13.93;;;10.17;;
64291;SDS011;50628;51.008;13.658;2024-02-26T17:39:48;18.90;;;12.57;;
64291;SDS011;50628;51.008;13.658;2024-02-26T17:44:50;11.50;;;9.37;;
64291;SDS011;50628;51.008;13.658;2024-02-26T17:49:54;15.13;;;10.13;;
64291;SDS011;50628;51.008;13.658;2024-02-26T17:54:55;15.60;;;9.33;;
64291;SDS011;50628;51.008;13.658;2024-02-26T17:59:57;12.00;;;8.93;;
64291;SDS011;50628;51.008;13.658;2024-02-26T18:05:01;16.53;;;10.63;;
64291;SDS011;50628;51.008;13.658;2024-02-26T18:10:03;24.10;;;12.30;;
64291;SDS011;50628;51.008;13.658;2024-02-26T18:15:09;16.40;;;10.70;;
64291;SDS011;50628;51.008;13.658;2024-02-26T18:20:12;15.97;;;11.10;;
64291;SDS011;50628;51.008;13.658;2024-02-26T18:25:15;18.43;;;12.17;;
64291;SDS011;50628;51.008;13.658;2024-02-26T18:30:17;16.63;;;11.77;;
64291;SDS011;50628;51.008;13.658;2024-02-26T18:35:21;20.03;;;12.83;;
64291;SDS011;50628;51.008;13.658;2024-02-26T18:40:23;24.07;;;12.83;;
64291;SDS011;50628;51.008;13.658;2024-02-26T18:45:24;23.57;;;12.83;;
64291;SDS011;50628;51.008;13.658;2024-02-26T18:50:28;15.03;;;10.63;;
64291;SDS011;50628;51.008;13.658;2024-02-26T18:55:29;14.40;;;9.87;;
64291;SDS011;50628;51.008;13.658;2024-02-26T19:00:32;18.03;;;10.97;;
64291;SDS011;50628;51.008;13.658;2024-02-26T19:05:36;15.20;;;11.67;;
64291;SDS011;50628;51.008;13.658;2024-02-26T19:10:38;17.67;;;12.77;;
64291;SDS011;50628;51.008;13.658;2024-02-26T19:15:40;27.43;;;15.80;;
64291;SDS011;50628;51.008;13.658;2024-02-26T19:20:45;23.63;;;16.33;;
64291;SDS011;50628;51.008;13.658;2024-02-26T19:25:48;25.13;;;18.13;;
64291;SDS011;50628;51.008;13.658;2024-02-26T19:30:50;21.90;;;14.17;;
64291;SDS011;50628;51.008;13.658;2024-02-26T19:35:54;20.23;;;13.67;;
64291;SDS011;50628;51.008;13.658;2024-02-26T19:40:55;17.93;;;13.37;;
64291;SDS011;50628;51.008;13.658;2024-02-26T19:45:57;18.67;;;13.23;;
64291;SDS011;50628;51.008;13.658;2024-02-26T19:51:00;18.80;;;12.23;;
64291;SDS011;50628;51.008;13.658;2024-02-26T19:56:03;18.90;;;13.57;;
64291;SDS011;50628;51.008;13.658;2024-02-26T20:01:05;21.40;;;14.27;;
64291;SDS011;50628;51.008;13.658;2024-02-26T20:06:10;22.43;;;15.33;;
64291;SDS011;50628;51.008;13.658;2024-02-26T20:11:14;22.17;;;13.73;;
64291;SDS011;50628;51.008;13.658;2024-02-26T20:16:18;20.30;;;14.27;;
64291;SDS011;50628;51.008;13.658;2024-02-26T20:21:21;19.63;;;14.97;;
64291;SDS011;50628;51.008;13.658;2024-02-26T20:26:23;21.77;;;15.40;;
64291;SDS011;50628;51.008;13.658;2024-02-26T20:31:25;19.43;;;13.63;;
64291;SDS011;50628;51.008;13.658;2024-02-26T20:36:28;17.37;;;13.60;;
64291;SDS011;50628;51.008;13.658;2024-02-26T20:41:30;17.17;;;14.00;;
64291;SDS011;50628;51.008;13.658;2024-02-26T20:46:32;19.43;;;14.57;;
64291;SDS011;50628;51.008;13.658;2024-02-26T20:51:35;17.90;;;13.53;;
64291;SDS011;50628;51.008;13.658;2024-02-26T20:56:38;18.20;;;13.13;;
64291;SDS011;50628;51.008;13.658;2024-02-26T21:01:41;19.53;;;14.27;;
64291;SDS011;50628;51.008;13.658;2024-02-26T21:06:44;19.37;;;13.90;;
64291;SDS011;50628;51.008;13.658;2024-02-26T21:11:46;20.23;;;15.60;;
64291;SDS011;50628;51.008;13.658;2024-02-26T21:16:48;21.13;;;15.43;;
64291;SDS011;50628;51.008;13.658;2024-02-26T21:21:51;25.60;;;15.43;;
64291;SDS011;50628;51.008;13.658;2024-02-26T21:26:53;23.70;;;14.27;;
64291;SDS011;50628;51.008;13.658;2024-02-26T21:31:55;23.20;;;16.77;;
64291;SDS011;50628;51.008;13.658;2024-02-26T21:36:58;24.33;;;17.50;;
64291;SDS011;50628;51.008;13.658;2024-02-26T21:42:00;21.00;;;16.17;;
64291;SDS011;50628;51.008;13.658;2024-02-26T21:47:02;22.70;;;15.43;;
64291;SDS011;50628;51.008;13.658;2024-02-26T21:52:06;22.87;;;16.70;;
64291;SDS011;50628;51.008;13.658;2024-02-26T21:57:08;24.27;;;16.70;;
64291;SDS011;50628;51.008;13.658;2024-02-26T22:02:10;21.17;;;15.10;;
64291;SDS011;50628;51.008;13.658;2024-02-26T22:07:13;21.73;;;14.33;;
64291;SDS011;50628;51.008;13.658;2024-02-26T22:12:15;18.63;;;13.60;;
64291;SDS011;50628;51.008;13.658;2024-02-26T22:17:17;21.40;;;13.03;;
64291;SDS011;50628;51.008;13.658;2024-02-26T22:22:22;18.10;;;13.57;;
64291;SDS011;50628;51.008;13.658;2024-02-26T22:27:24;18.83;;;13.50;;
64291;SDS011;50628;51.008;13.658;2024-02-26T22:32:26;19.60;;;14.80;;
64291;SDS011;50628;51.008;13.658;2024-02-26T22:37:30;18.67;;;14.43;;
64291;SDS011;50628;51.008;13.658;2024-02-26T22:42:31;18.63;;;13.43;;
64291;SDS011;50628;51.008;13.658;2024-02-26T22:47:35;19.87;;;15.80;;
64291;SDS011;50628;51.008;13.658;2024-02-26T22:52:38;22.37;;;15.40;;
64291;SDS011;50628;51.008;13.658;2024-02-26T22:57:40;18.63;;;15.03;;
64291;SDS011;50628;51.008;13.658;2024-02-26T23:02:42;22.03;;;15.53;;
64291;SDS011;50628;51.008;13.658;2024-02-26T23:07:45;21.23;;;15.73;;
64291;SDS011;50628;51.008;13.658;2024-02-26T23:12:47;24.33;;;17.13;;
64291;SDS011;50628;51.008;13.658;2024-02-26T23:17:49;21.17;;;14.80;;
64291;SDS011;50628;51.008;13.658;2024-02-26T23:22:54;23.53;;;15.97;;
64291;SDS011;50628;51.008;13.658;2024-02-26T23:27:56;20.63;;;15.53;;
64291;SDS011;50628;51.008;13.658;2024-02-26T23:32:58;20.50;;;15.17;;
64291;SDS011;50628;51.008;13.658;2024-02-26T23:38:01;19.33;;;15.17;;
64291;SDS011;50628;51.008;13.658;2024-02-26T23:43:03;22.57;;;15.13;;
64291;SDS011;50628;51.008;13.658;2024-02-26T23:48:05;19.60;;;13.97;;
64291;SDS011;50628;51.008;13.658;2024-02-26T23:53:09;16.40;;;13.37;;
64291;SDS011;50628;51.008;13.658;2024-02-26T23:58:11;17.37;;;12.90;;
